Delton, MI (49046)

6:15 PM EDT on July 29, 2016 (GMT -0400)
Prairieville Twp Park | | Change Station

Elev 805 ft 42.43 °N, 85.43 °W | Updated 5 minutes ago

Partly Cloudy
Partly Cloudy
76.4 °F
Feels Like 78 °F
N
1.0
Wind Variable Wind from North
Gusts 3.0 mph

Today
High -- | Low -- °F
--% Chance of Precip.
Yesterday
High -- | Low -- °F
Precip. -- in
Pressure 29.95 in
Visibility 10.0 miles
Clouds Few 5000 ft
Heat Index 78 °F
Dew Point 67 °F
Humidity 73%
Rainfall --
Snow Depth Not available.
6:31 AM 9:04 PM
Waning Crescent, 18% visible
METAR KBTL 292153Z 04008KT 10SM FEW050 23/19 A2996 RMK AO2 SLP140 T02330189
Pressure 29.95 in
Visibility 10.0 miles
Clouds Few 5000 ft
Heat Index 78 °F
Dew Point 67 °F
Humidity 73%
Rainfall --
Snow Depth Not available.
6:31 AM 9:04 PM
Waning Crescent, 18% visible
METAR KBTL 292153Z 04008KT 10SM FEW050 23/19 A2996 RMK AO2 SLP140 T02330189

10-Day Weather Forecast

Almanac

Astronomy

Jul. 29, 2016 Rise Set
Actual Time
Civil Twilight
Nautical Twilight
Astronomical Twilight
Moon
Length of Visible Light
Length of Day
Tomorrow will be .
, % of the Moon is Illuminated

Today's Extremes

State Highs State Lows

Community

WunderPhotos

Upload Photos

1,928,429 photos uploaded!

WunderBlog® & News

Nearby

Air Quality

  Air Quality AQ Index Pollutant
Not available.

Snow Depth

Station Depth Elevation

Earthquake Activity

City Distance Mag. Time & Date
Minimum magnitude displayed is 2.5.

Coastal Water Temperatures

Place Temperature

Stations

Nearby Weather Stations

Station Location Temp. Windchill Dew Point Humidity Wind Precip. Elev Updated Type
                   

Watches & Warnings

There are currently no watches in effect.